createdAt,value
2022-10-07T00:06:21.387Z,9.4
2022-10-07T00:16:22.219Z,9.5
2022-10-07T00:36:23.623Z,9.5
2022-10-07T00:46:24.572Z,9.6
2022-10-07T00:56:25.539Z,9.6
2022-10-07T01:16:27.209Z,9.6
2022-10-07T01:26:28.081Z,9.5
2022-10-07T01:36:28.775Z,9.5
2022-10-07T01:46:29.153Z,9.5
2022-10-07T01:56:29.950Z,9.5
2022-10-07T02:06:30.222Z,9.5
2022-10-07T02:16:30.997Z,9.5
2022-10-07T02:26:32.056Z,9.5
2022-10-07T02:36:32.814Z,9.5
2022-10-07T02:46:33.358Z,9.5
2022-10-07T02:56:33.501Z,9.4
2022-10-07T03:06:34.333Z,8.7
2022-10-07T03:16:35.276Z,8.5
2022-10-07T03:26:35.571Z,8.8
2022-10-07T03:36:36.540Z,8.7
2022-10-07T03:46:37.138Z,8.5
2022-10-07T03:56:37.557Z,8.4
2022-10-07T04:06:37.804Z,8.5
2022-10-07T04:16:38.284Z,8.7
2022-10-07T04:26:38.563Z,9.1
2022-10-07T04:36:39.263Z,9.1
2022-10-07T04:46:39.974Z,9.2
2022-10-07T04:56:40.903Z,9.1
2022-10-07T05:06:41.182Z,9.1
2022-10-07T05:16:41.365Z,9.1
2022-10-07T05:26:41.530Z,9
2022-10-07T05:36:42.574Z,8.8
2022-10-07T05:56:43.202Z,8.9
2022-10-07T06:16:43.941Z,8.8
2022-10-07T06:36:44.998Z,9.2
2022-10-07T06:46:45.104Z,9.4
2022-10-07T06:56:45.260Z,9.8
2022-10-07T07:06:45.546Z,10.2
2022-10-07T07:16:45.809Z,11.2
2022-10-07T07:26:46.640Z,11.7
2022-10-07T07:36:47.470Z,12
2022-10-07T09:26:53.640Z,16.5
2022-10-07T09:36:53.960Z,16.4
2022-10-07T09:46:54.273Z,16.3
2022-10-07T10:06:55.474Z,16.6
2022-10-07T10:16:55.634Z,16.8
2022-10-07T10:26:55.765Z,16.8
2022-10-07T10:36:56.550Z,17.1
2022-10-07T10:46:57.625Z,17.4
2022-10-07T10:56:58.113Z,17.3
2022-10-07T11:16:59.599Z,18
2022-10-07T11:27:00.261Z,17.7
2022-10-07T11:37:00.377Z,17.9
2022-10-07T11:47:01.323Z,18.1
2022-10-07T11:57:02.166Z,18.4
2022-10-07T12:07:02.436Z,18.1
2022-10-07T12:17:03.449Z,18.9
2022-10-07T12:27:03.608Z,18.2
2022-10-07T12:37:03.723Z,18.1
2022-10-07T12:47:03.782Z,18.7
2022-10-07T12:57:04.650Z,18.3
2022-10-07T13:07:05.015Z,18.9
2022-10-07T13:17:05.443Z,18.7
2022-10-07T13:17:10.745Z,18.7
2022-10-07T13:27:11.246Z,18.4
2022-10-07T13:37:11.679Z,19
2022-10-07T13:47:12.003Z,18.5
2022-10-07T14:07:13.167Z,18.7
2022-10-07T14:17:13.227Z,18.7
2022-10-07T14:27:13.347Z,18.3
2022-10-07T14:37:14.371Z,18
2022-10-07T14:47:14.942Z,17.9
2022-10-07T14:57:15.284Z,18
2022-10-07T15:07:15.723Z,17.9
2022-10-07T15:17:16.603Z,17.7
2022-10-07T15:27:16.597Z,17.6
2022-10-07T15:37:16.832Z,17.5
2022-10-07T15:47:16.871Z,17.3
2022-10-07T15:57:17.076Z,17.1
2022-10-07T16:07:17.633Z,16.8
2022-10-07T16:17:18.356Z,16.7
2022-10-07T16:27:18.835Z,16.4
2022-10-07T16:37:19.306Z,16.2
2022-10-07T16:57:20.614Z,15.1
2022-10-07T17:17:21.947Z,14.2
2022-10-07T17:37:22.560Z,13.1
2022-10-07T17:57:23.410Z,12.6
2022-10-07T18:17:24.650Z,12.7
2022-10-07T18:27:25.335Z,12.7
2022-10-07T18:37:26.204Z,12.7
2022-10-07T18:57:27.544Z,12.3
2022-10-07T19:17:28.969Z,12.2
2022-10-07T20:07:31.264Z,11.6
2022-10-07T20:57:34.402Z,11.1
2022-10-07T21:27:35.050Z,11.1
2022-10-07T21:57:36.094Z,11.7
2022-10-07T22:17:37.821Z,11.9
2022-10-07T22:47:39.460Z,12
2022-10-07T22:57:39.874Z,11.8
2022-10-07T23:17:40.931Z,11.9
